»·PEaware :: N623JB KSNA-KCMA

N623JB :: KSNA-KCMA

FLIGHT INFORMATION

Flight Status: Arrived
Operator: Privately registered:
United States
More flights under this callsign
Pilot: Jonathan B. (32222)
Aircraft: CIRRUS SR-22
(SR22)
More flights by this aircraft type
Origin: KSNA John Wayne-Orange Co
United States
Destination: KCMA Camarillo
United States
More flights between these airports :: More routes between these airports
Route: SLI V23 POPPR SMO125 SMO VNY
File this flight plan on PilotEdge
Remarks:
Altitude:
(Current/Filed)
4,000ft
Speed:
(Current/Filed)
140kts
Departed: 19-Nov-20 10:36 AM
Arrived: 19-Nov-20 11:15 AM
Distance/Time
Traveled:
6774nm/0:39
Distance/Time
To Go:
Arrived

Flight Plot

Page will automatically refresh every two minutes.


Map Options




Map Legend


Flown Route
Filed Route
Departure Airport
Arrival Airport
Navaid (VOR, NDB)
Fix

Horizontal Profiles

Position Reports

Time Latitude Longitude Heading Altitude Ground
Speed
19-Nov-20 09:44 33.676494 -117.870946 182 52ft 0kts
19-Nov-20 09:45 33.676494 -117.870946 182 52ft 0kts
19-Nov-20 09:46 33.676494 -117.870946 182 52ft 0kts
19-Nov-20 09:47 33.676494 -117.870946 182 52ft 0kts
19-Nov-20 09:48 33.676494 -117.870946 182 52ft 0kts
19-Nov-20 09:49 33.676494 -117.870946 182 52ft 0kts
19-Nov-20 09:50 33.676494 -117.870946 182 52ft 0kts
19-Nov-20 09:51 33.676494 -117.870946 182 52ft 0kts
19-Nov-20 09:52 33.676494 -117.870946 182 52ft 0kts
19-Nov-20 09:53 33.676494 -117.870946 182 52ft 0kts
19-Nov-20 09:54 33.676494 -117.870946 182 52ft 0kts
19-Nov-20 09:55 33.676494 -117.870946 182 52ft 0kts
19-Nov-20 09:56 33.676494 -117.870946 182 52ft 0kts
19-Nov-20 09:57 33.676494 -117.870946 182 52ft 0kts
19-Nov-20 09:58 33.676494 -117.870946 182 52ft 0kts
19-Nov-20 09:59 33.676494 -117.870946 182 52ft 0kts
19-Nov-20 10:00 33.676494 -117.870946 182 52ft 0kts
19-Nov-20 10:01 33.676494 -117.870946 182 52ft 0kts
19-Nov-20 10:02 33.676494 -117.870946 182 52ft 0kts
19-Nov-20 10:03 33.676494 -117.870946 182 52ft 0kts
19-Nov-20 10:04 33.676494 -117.870946 182 52ft 0kts
19-Nov-20 10:05 33.676494 -117.870946 182 52ft 0kts
19-Nov-20 10:06 33.676494 -117.870946 182 52ft 0kts
19-Nov-20 10:07 33.676494 -117.870946 182 52ft 0kts
19-Nov-20 10:08 33.676494 -117.870946 182 52ft 0kts
19-Nov-20 10:09 33.676494 -117.870946 182 52ft 0kts
19-Nov-20 10:10 33.676494 -117.870946 182 52ft 0kts
19-Nov-20 10:11 33.676494 -117.870946 182 52ft 0kts
19-Nov-20 10:12 33.676494 -117.870946 182 52ft 0kts
19-Nov-20 10:13 33.676494 -117.870946 182 52ft 0kts
19-Nov-20 10:14 33.676494 -117.870946 182 52ft 0kts
19-Nov-20 10:15 33.676494 -117.870946 182 52ft 0kts
19-Nov-20 10:16 33.676494 -117.870946 182 52ft 0kts
19-Nov-20 10:17 33.676494 -117.870946 182 52ft 0kts
19-Nov-20 10:18 33.676494 -117.870946 182 52ft 0kts
19-Nov-20 10:19 33.676494 -117.870946 182 52ft 0kts
19-Nov-20 10:20 33.676494 -117.870946 182 52ft 0kts
19-Nov-20 10:21 33.676494 -117.870946 182 52ft 0kts
19-Nov-20 10:22 33.676494 -117.870946 182 52ft 0kts
19-Nov-20 10:23 33.676494 -117.870946 182 52ft 0kts
19-Nov-20 10:24 33.676494 -117.870946 182 52ft 0kts
19-Nov-20 10:25 33.676494 -117.870946 182 52ft 0kts
19-Nov-20 10:26 33.676494 -117.870946 182 52ft 0kts
19-Nov-20 10:27 33.676494 -117.870946 182 52ft 0kts
19-Nov-20 10:28 33.676494 -117.870946 182 52ft 0kts
19-Nov-20 10:29 33.676494 -117.870946 182 52ft 0kts
19-Nov-20 10:30 33.676453 -117.870926 140 52ft 4kts
19-Nov-20 10:31 33.677243 -117.869353 27 51ft 13kts
19-Nov-20 10:32 33.681231 -117.866871 66 43ft 15kts
19-Nov-20 10:33 33.681211 -117.866436 117 43ft 0kts
19-Nov-20 10:34 33.680993 -117.865930 124 43ft 11kts
19-Nov-20 10:35 33.663699 -117.876520 211 456ft 104kts
19-Nov-20 10:36 33.642396 -117.898797 222 1428ft 102kts
19-Nov-20 10:37 33.619529 -117.923572 222 1962ft 125kts
19-Nov-20 10:38 33.597799 -117.954770 292 2076ft 117kts
19-Nov-20 10:39 33.618772 -117.974847 326 3047ft 83kts
19-Nov-20 10:40 33.632345 -117.991867 308 3824ft 70kts
19-Nov-20 10:41 33.649311 -118.020822 312 4070ft 146kts
19-Nov-20 10:42 33.678414 -118.056485 311 3996ft 152kts
19-Nov-20 10:43 33.702367 -118.095885 309 4107ft 136kts
19-Nov-20 10:44 33.709906 -118.142342 289 4012ft 146kts
19-Nov-20 10:45 33.734252 -118.178348 331 3993ft 143kts
19-Nov-20 10:46 33.761918 -118.206053 322 3992ft 144kts
19-Nov-20 10:47 33.790360 -118.235131 319 3991ft 144kts
19-Nov-20 10:48 33.821063 -118.266160 320 3991ft 144kts
19-Nov-20 10:49 33.851892 -118.297145 321 3988ft 144kts
19-Nov-20 10:50 33.882586 -118.327925 321 3987ft 144kts
19-Nov-20 10:51 33.913148 -118.358879 320 3986ft 143kts
19-Nov-20 10:52 33.943991 -118.389861 321 3989ft 151kts
19-Nov-20 10:53 33.977124 -118.423280 321 3984ft 157kts
19-Nov-20 10:54 34.010723 -118.457198 321 3981ft 157kts
19-Nov-20 10:55 34.047716 -118.483113 359 3983ft 156kts
19-Nov-20 10:56 34.090434 -118.476568 348 3980ft 157kts
19-Nov-20 10:57 34.133662 -118.482591 352 3978ft 155kts
19-Nov-20 10:58 34.176212 -118.486846 351 3976ft 153kts
19-Nov-20 10:59 34.212194 -118.508455 297 3974ft 154kts
19-Nov-20 11:00 34.211280 -118.560117 269 3975ft 155kts
19-Nov-20 11:01 34.214057 -118.612134 273 3973ft 155kts
19-Nov-20 11:02 34.214446 -118.664445 272 3974ft 155kts
19-Nov-20 11:03 34.215622 -118.705821 273 3956ft 152kts
19-Nov-20 11:05 34.215622 -118.705821 273 3956ft 152kts
19-Nov-20 11:06 34.217140 -118.754587 274 3949ft 151kts
19-Nov-20 11:07 34.217741 -118.804962 270 3934ft 140kts
19-Nov-20 11:08 34.217654 -118.849272 270 3940ft 127kts
19-Nov-20 11:09 34.217720 -118.891762 271 3944ft 126kts
19-Nov-20 11:10 34.220181 -118.934011 270 3510ft 135kts
19-Nov-20 11:11 34.217471 -118.981217 263 2065ft 126kts
19-Nov-20 11:12 34.214504 -119.021911 261 1181ft 120kts
19-Nov-20 11:13 34.213401 -119.059694 270 583ft 96kts
19-Nov-20 11:14 34.213685 -119.088169 271 74ft 54kts
19-Nov-20 11:15 34.212948 -119.090804 203 75ft 0kts
19-Nov-20 11:16 34.212783 -119.090887 200 75ft 7kts
19-Nov-20 11:17 34.210906 -119.089647 183 77ft 8kts
19-Nov-20 11:18 0.000408 0.013975 359 3ft 0kts
19-Nov-20 11:19 0.000408 0.013975 359 3ft 0kts
19-Nov-20 11:20 0.000408 0.013975 359 3ft 0kts
19-Nov-20 11:21 0.000408 0.013975 359 3ft 0kts
19-Nov-20 11:22 0.000408 0.013975 359 3ft 0kts
19-Nov-20 11:22 0.000408 0.013975 359 3ft 0kts
19-Nov-20 11:24 0.000408 0.013975 359 3ft 0kts
19-Nov-20 11:24 0.000408 0.013975 359 3ft 0kts
19-Nov-20 11:26 0.000408 0.013975 359 3ft 0kts
19-Nov-20 11:26 0.000408 0.013975 359 3ft 0kts
19-Nov-20 11:27 0.000408 0.013975 359 3ft 0kts
19-Nov-20 11:28 0.000408 0.013975 359 3ft 0kts

Navigation Log

Ident Type
Flight plan parsing failed, navigation log unavailable